Metar z połowy godziny Komunikat METAR ze strony awiacja.imgw.pl Metar G00 EPGD METAR EPGD 171230Z 24012KT 9999 FEW049 23/12 Q1017 =